AAR3615 ZSSS-RKPK
Flight info
| Callsign | AAR3615 |
|---|---|
| Flight time | 1h 25m |
| Altitude | 35000 |
| Route | LAM73D LAMEN A593 SADLI Y590 ELGEP Y722 SOSDO Y571 ANROD GAYHA3 |
| Aircraft | A21N/M-SDE3FGHIRWY/LB1 |
Departure
| Time | 2026-05-08 12:46 |
|---|---|
| Airport | Shanghai Hongqiao International Airport (ZSSS) |
Arrival
| Time | 2026-05-08 14:11 |
|---|---|
| Airport | Gimhae International Airport (RKPK) |
| Time | Latitude | Longitude | Altitude | Speed | Heading |
|---|---|---|---|---|---|
| 2026-05-08 12:18 | 31.19828 | 121.34268 | 20 ft | 0 kts | 179° |
| 2026-05-08 12:30 | 31.19839 | 121.34267 | 20 ft | 2 kts | 178° |
| 2026-05-08 12:30 | 31.19854 | 121.34267 | 20 ft | 2 kts | 179° |
| 2026-05-08 12:31 | 31.19869 | 121.34267 | 20 ft | 2 kts | 178° |
| 2026-05-08 12:31 | 31.19884 | 121.34267 | 20 ft | 2 kts | 196° |
| 2026-05-08 12:31 | 31.19898 | 121.34275 | 21 ft | 2 kts | 217° |
| 2026-05-08 12:31 | 31.19908 | 121.34287 | 21 ft | 2 kts | 238° |
| 2026-05-08 12:32 | 31.19914 | 121.34303 | 21 ft | 2 kts | 260° |
| 2026-05-08 12:32 | 31.19914 | 121.34312 | 21 ft | 1 kts | 272° |
| 2026-05-08 12:32 | 31.19914 | 121.34317 | 21 ft | 0 kts | 269° |
| 2026-05-08 12:35 | 31.19914 | 121.34303 | 21 ft | 7 kts | 269° |
| 2026-05-08 12:36 | 31.19911 | 121.34193 | 19 ft | 16 kts | 267° |
| 2026-05-08 12:36 | 31.19904 | 121.34045 | 17 ft | 19 kts | 266° |
| 2026-05-08 12:36 | 31.19891 | 121.33886 | 16 ft | 19 kts | 268° |
| 2026-05-08 12:36 | 31.19884 | 121.33723 | 16 ft | 19 kts | 266° |
| 2026-05-08 12:37 | 31.19878 | 121.33574 | 17 ft | 18 kts | 267° |
| 2026-05-08 12:37 | 31.19875 | 121.33503 | 18 ft | 0 kts | 265° |
| 2026-05-08 12:37 | 31.19873 | 121.33492 | 18 ft | 4 kts | 256° |
| 2026-05-08 12:38 | 31.19844 | 121.33453 | 18 ft | 9 kts | 203° |
| 2026-05-08 12:38 | 31.19757 | 121.33440 | 18 ft | 15 kts | 179° |
| 2026-05-08 12:38 | 31.19630 | 121.33445 | 18 ft | 20 kts | 178° |
| 2026-05-08 12:38 | 31.19469 | 121.33454 | 18 ft | 24 kts | 177° |
| 2026-05-08 12:39 | 31.19304 | 121.33463 | 16 ft | 23 kts | 176° |
| 2026-05-08 12:39 | 31.19145 | 121.33472 | 16 ft | 22 kts | 177° |
| 2026-05-08 12:39 | 31.18992 | 121.33481 | 16 ft | 21 kts | 177° |
| 2026-05-08 12:39 | 31.18853 | 121.33488 | 18 ft | 19 kts | 176° |
| 2026-05-08 12:40 | 31.18702 | 121.33496 | 18 ft | 23 kts | 177° |
| 2026-05-08 12:40 | 31.18541 | 121.33505 | 18 ft | 22 kts | 178° |
| 2026-05-08 12:40 | 31.18389 | 121.33514 | 18 ft | 21 kts | 177° |
| 2026-05-08 12:40 | 31.18243 | 121.33521 | 18 ft | 21 kts | 177° |
| 2026-05-08 12:41 | 31.18071 | 121.33531 | 18 ft | 27 kts | 177° |
| 2026-05-08 12:41 | 31.17874 | 121.33543 | 18 ft | 27 kts | 176° |
| 2026-05-08 12:41 | 31.17816 | 121.33547 | 18 ft | 0 kts | 176° |
| 2026-05-08 12:42 | 31.17778 | 121.33523 | 18 ft | 13 kts | 233° |
| 2026-05-08 12:43 | 31.17756 | 121.33363 | 18 ft | 26 kts | 267° |
| 2026-05-08 12:43 | 31.17816 | 121.33145 | 18 ft | 31 kts | 323° |
| 2026-05-08 12:43 | 31.18000 | 121.33046 | 18 ft | 28 kts | 5° |
| 2026-05-08 12:43 | 31.18193 | 121.33047 | 18 ft | 27 kts | 1° |
| 2026-05-08 12:44 | 31.18334 | 121.33122 | 18 ft | 23 kts | 81° |
| 2026-05-08 12:44 | 31.18340 | 121.33202 | 18 ft | 0 kts | 87° |
| 2026-05-08 12:44 | 31.18340 | 121.33212 | 18 ft | 7 kts | 88° |
| 2026-05-08 12:45 | 31.18415 | 121.33311 | 18 ft | 27 kts | 8° |
| 2026-05-08 12:45 | 31.18758 | 121.33302 | 18 ft | 86 kts | 357° |
| 2026-05-08 12:45 | 31.19634 | 121.33253 | 19 ft | 159 kts | 358° |
| 2026-05-08 12:45 | 31.20891 | 121.33221 | 278 ft | 194 kts | 1° |
| 2026-05-08 12:46 | 31.22276 | 121.33190 | 1031 ft | 202 kts | 359° |
| 2026-05-08 12:46 | 31.23577 | 121.32886 | 2189 ft | 194 kts | 339° |
| 2026-05-08 12:46 | 31.24565 | 121.31870 | 3165 ft | 196 kts | 301° |
| 2026-05-08 12:46 | 31.24872 | 121.30353 | 4007 ft | 200 kts | 272° |
| 2026-05-08 12:47 | 31.24658 | 121.28764 | 4828 ft | 202 kts | 252° |
| 2026-05-08 12:47 | 31.24270 | 121.27113 | 5290 ft | 216 kts | 266° |
| 2026-05-08 12:47 | 31.24445 | 121.25359 | 5633 ft | 227 kts | 286° |
| 2026-05-08 12:47 | 31.24821 | 121.23491 | 5955 ft | 245 kts | 281° |
| 2026-05-08 12:48 | 31.24726 | 121.21435 | 6213 ft | 267 kts | 247° |
| 2026-05-08 12:48 | 31.23596 | 121.19762 | 6812 ft | 269 kts | 211° |
| 2026-05-08 12:48 | 31.21856 | 121.19126 | 7516 ft | 265 kts | 176° |
| 2026-05-08 12:48 | 31.20134 | 121.19737 | 8166 ft | 261 kts | 141° |
| 2026-05-08 12:49 | 31.19036 | 121.21361 | 8740 ft | 259 kts | 106° |
| 2026-05-08 12:49 | 31.18767 | 121.23431 | 9297 ft | 261 kts | 91° |
| 2026-05-08 12:49 | 31.18588 | 121.25583 | 9803 ft | 271 kts | 95° |
| 2026-05-08 12:49 | 31.18328 | 121.27773 | 10378 ft | 276 kts | 96° |
| 2026-05-08 12:50 | 31.18027 | 121.29979 | 10949 ft | 281 kts | 97° |
| 2026-05-08 12:50 | 31.17698 | 121.32243 | 11515 ft | 285 kts | 97° |
| 2026-05-08 12:50 | 31.17354 | 121.34528 | 12067 ft | 289 kts | 97° |
| 2026-05-08 12:50 | 31.16998 | 121.36844 | 12598 ft | 294 kts | 97° |
| 2026-05-08 12:51 | 31.16630 | 121.39214 | 13128 ft | 298 kts | 98° |
| 2026-05-08 12:51 | 31.15874 | 121.44050 | 14188 ft | 307 kts | 98° |
| 2026-05-08 12:51 | 31.15488 | 121.46510 | 14691 ft | 311 kts | 98° |
| 2026-05-08 12:52 | 31.15096 | 121.49008 | 15169 ft | 316 kts | 98° |
| 2026-05-08 12:52 | 31.14294 | 121.54092 | 16143 ft | 324 kts | 99° |
| 2026-05-08 12:52 | 31.13878 | 121.56713 | 16643 ft | 328 kts | 99° |
| 2026-05-08 12:53 | 31.13464 | 121.59328 | 17124 ft | 331 kts | 99° |
| 2026-05-08 12:53 | 31.13039 | 121.61991 | 17552 ft | 336 kts | 99° |
| 2026-05-08 12:53 | 31.12612 | 121.64676 | 18002 ft | 340 kts | 99° |
| 2026-05-08 12:53 | 31.12177 | 121.67419 | 18408 ft | 344 kts | 100° |
| 2026-05-08 12:54 | 31.11743 | 121.70142 | 18793 ft | 349 kts | 101° |
| 2026-05-08 12:54 | 31.11295 | 121.72961 | 19159 ft | 354 kts | 101° |
| 2026-05-08 12:54 | 31.10840 | 121.75799 | 19559 ft | 358 kts | 101° |
| 2026-05-08 12:54 | 31.10376 | 121.78690 | 19856 ft | 365 kts | 101° |
| 2026-05-08 12:55 | 31.09900 | 121.81665 | 19911 ft | 381 kts | 102° |
| 2026-05-08 12:55 | 31.09393 | 121.84789 | 19926 ft | 399 kts | 101° |
| 2026-05-08 12:55 | 31.08873 | 121.87999 | 19910 ft | 412 kts | 101° |
| 2026-05-08 12:55 | 31.08338 | 121.91335 | 19911 ft | 415 kts | 101° |
| 2026-05-08 12:56 | 31.07799 | 121.94666 | 20079 ft | 422 kts | 101° |
| 2026-05-08 12:56 | 31.07255 | 121.98036 | 20513 ft | 423 kts | 102° |
| 2026-05-08 12:56 | 31.06714 | 122.01393 | 20914 ft | 425 kts | 102° |
| 2026-05-08 12:56 | 31.06164 | 122.04792 | 21283 ft | 428 kts | 102° |
| 2026-05-08 12:57 | 31.05607 | 122.08224 | 21629 ft | 432 kts | 102° |
| 2026-05-08 12:57 | 31.05049 | 122.11652 | 21975 ft | 435 kts | 103° |
| 2026-05-08 12:57 | 31.04480 | 122.15138 | 22309 ft | 439 kts | 103° |
| 2026-05-08 12:57 | 31.03909 | 122.18626 | 22616 ft | 443 kts | 103° |
| 2026-05-08 12:58 | 31.03329 | 122.22164 | 22950 ft | 446 kts | 103° |
| 2026-05-08 12:58 | 31.02740 | 122.25763 | 23309 ft | 449 kts | 103° |
| 2026-05-08 12:58 | 31.02156 | 122.29311 | 23651 ft | 452 kts | 103° |
| 2026-05-08 12:58 | 31.01562 | 122.32909 | 23949 ft | 456 kts | 103° |
| 2026-05-08 12:59 | 31.00957 | 122.36568 | 24263 ft | 459 kts | 103° |
| 2026-05-08 12:59 | 31.00396 | 122.40224 | 24631 ft | 461 kts | 100° |
| 2026-05-08 12:59 | 31.00032 | 122.44029 | 25037 ft | 463 kts | 94° |
| 2026-05-08 12:59 | 30.99920 | 122.48136 | 25403 ft | 466 kts | 90° |
| 2026-05-08 13:00 | 30.99940 | 122.52293 | 25738 ft | 470 kts | 89° |
| 2026-05-08 13:00 | 30.99975 | 122.56439 | 26078 ft | 473 kts | 90° |
| 2026-05-08 13:00 | 30.99994 | 122.60278 | 26370 ft | 476 kts | 89° |
| 2026-05-08 13:00 | 30.99993 | 122.64292 | 26707 ft | 479 kts | 89° |
| 2026-05-08 13:01 | 30.99995 | 122.68371 | 26983 ft | 481 kts | 90° |
| 2026-05-08 13:01 | 31.00000 | 122.72415 | 27264 ft | 484 kts | 90° |
| 2026-05-08 13:01 | 31.00001 | 122.76484 | 27521 ft | 487 kts | 90° |
| 2026-05-08 13:01 | 31.00001 | 122.80607 | 27767 ft | 490 kts | 90° |
| 2026-05-08 13:02 | 31.00002 | 122.84797 | 28032 ft | 493 kts | 89° |
| 2026-05-08 13:02 | 31.00000 | 122.89011 | 28339 ft | 494 kts | 90° |
| 2026-05-08 13:02 | 30.99998 | 122.93163 | 28618 ft | 496 kts | 89° |
| 2026-05-08 13:02 | 31.00094 | 122.97425 | 28846 ft | 499 kts | 84° |
| 2026-05-08 13:03 | 31.00568 | 123.01608 | 29072 ft | 500 kts | 76° |
| 2026-05-08 13:03 | 31.01450 | 123.05649 | 29419 ft | 498 kts | 69° |
| 2026-05-08 13:03 | 31.02536 | 123.09534 | 29709 ft | 498 kts | 67° |
| 2026-05-08 13:03 | 31.03657 | 123.13354 | 29919 ft | 502 kts | 66° |
| 2026-05-08 13:04 | 31.04805 | 123.17262 | 30176 ft | 504 kts | 68° |
| 2026-05-08 13:04 | 31.05918 | 123.21114 | 30428 ft | 506 kts | 67° |
| 2026-05-08 13:04 | 31.07033 | 123.25013 | 30690 ft | 508 kts | 68° |
| 2026-05-08 13:04 | 31.08157 | 123.28986 | 30920 ft | 511 kts | 68° |
| 2026-05-08 13:05 | 31.09269 | 123.32941 | 31146 ft | 514 kts | 68° |
| 2026-05-08 13:05 | 31.10388 | 123.36945 | 31407 ft | 516 kts | 68° |
| 2026-05-08 13:05 | 31.11527 | 123.41018 | 31685 ft | 517 kts | 68° |
| 2026-05-08 13:05 | 31.12652 | 123.45048 | 31902 ft | 519 kts | 68° |
| 2026-05-08 13:06 | 31.13772 | 123.49076 | 32103 ft | 522 kts | 68° |
| 2026-05-08 13:06 | 31.14923 | 123.53205 | 32315 ft | 524 kts | 68° |
| 2026-05-08 13:06 | 31.16069 | 123.57332 | 32587 ft | 525 kts | 68° |
| 2026-05-08 13:06 | 31.17199 | 123.61418 | 32900 ft | 525 kts | 68° |
| 2026-05-08 13:07 | 31.18347 | 123.65562 | 33154 ft | 526 kts | 69° |
| 2026-05-08 13:07 | 31.19488 | 123.69685 | 33165 ft | 527 kts | 69° |
| 2026-05-08 13:07 | 31.21752 | 123.77892 | 33187 ft | 527 kts | 69° |
| 2026-05-08 13:08 | 31.24002 | 123.86069 | 33168 ft | 526 kts | 69° |
| 2026-05-08 13:08 | 31.26251 | 123.94261 | 33178 ft | 526 kts | 69° |
| 2026-05-08 13:09 | 31.28556 | 124.02669 | 33177 ft | 526 kts | 69° |
| 2026-05-08 13:09 | 31.30785 | 124.10839 | 33173 ft | 525 kts | 69° |
| 2026-05-08 13:10 | 31.33014 | 124.19035 | 33174 ft | 526 kts | 69° |
| 2026-05-08 13:10 | 31.35225 | 124.27181 | 33187 ft | 525 kts | 69° |
| 2026-05-08 13:11 | 31.37438 | 124.35354 | 33168 ft | 525 kts | 69° |
| 2026-05-08 13:11 | 31.39651 | 124.43548 | 33177 ft | 523 kts | 69° |
| 2026-05-08 13:12 | 31.41840 | 124.51675 | 33190 ft | 523 kts | 69° |
| 2026-05-08 13:12 | 31.44025 | 124.59810 | 33154 ft | 523 kts | 69° |
| 2026-05-08 13:13 | 31.46222 | 124.68021 | 33175 ft | 524 kts | 70° |
| 2026-05-08 13:13 | 31.48412 | 124.76242 | 33177 ft | 523 kts | 69° |
| 2026-05-08 13:14 | 31.50658 | 124.84677 | 33173 ft | 523 kts | 69° |
| 2026-05-08 13:14 | 31.52889 | 124.93062 | 33172 ft | 522 kts | 69° |
| 2026-05-08 13:15 | 31.55098 | 125.01417 | 33194 ft | 523 kts | 70° |
| 2026-05-08 13:15 | 31.57243 | 125.09569 | 33158 ft | 523 kts | 69° |
| 2026-05-08 13:16 | 31.59456 | 125.17979 | 33201 ft | 523 kts | 70° |
| 2026-05-08 13:16 | 31.61617 | 125.26216 | 33198 ft | 522 kts | 70° |
| 2026-05-08 13:17 | 31.63749 | 125.34344 | 33165 ft | 519 kts | 70° |
| 2026-05-08 13:17 | 31.65870 | 125.42500 | 33156 ft | 522 kts | 70° |
| 2026-05-08 13:18 | 31.67986 | 125.50632 | 33204 ft | 522 kts | 70° |
| 2026-05-08 13:18 | 31.70088 | 125.58746 | 33184 ft | 520 kts | 70° |
| 2026-05-08 13:19 | 31.72172 | 125.66872 | 33164 ft | 518 kts | 72° |
| 2026-05-08 13:19 | 31.74005 | 125.75029 | 33166 ft | 516 kts | 74° |
| 2026-05-08 13:20 | 31.75870 | 125.83221 | 33205 ft | 519 kts | 68° |
| 2026-05-08 13:20 | 31.77320 | 125.87073 | 33150 ft | 511 kts | 57° |
| 2026-05-08 13:20 | 31.79256 | 125.90527 | 33177 ft | 504 kts | 46° |
| 2026-05-08 13:21 | 31.84324 | 125.95946 | 33191 ft | 485 kts | 26° |
| 2026-05-08 13:21 | 31.87259 | 125.97829 | 33172 ft | 474 kts | 16° |
| 2026-05-08 13:21 | 31.90325 | 125.99217 | 33139 ft | 468 kts | 10° |
| 2026-05-08 13:22 | 31.96554 | 126.01674 | 33194 ft | 472 kts | 10° |
| 2026-05-08 13:22 | 32.02757 | 126.04221 | 33151 ft | 473 kts | 11° |
| 2026-05-08 13:23 | 32.09137 | 126.06923 | 33187 ft | 473 kts | 12° |
| 2026-05-08 13:23 | 32.15406 | 126.09582 | 33163 ft | 474 kts | 11° |
| 2026-05-08 13:24 | 32.21649 | 126.12236 | 33159 ft | 473 kts | 11° |
| 2026-05-08 13:24 | 32.27819 | 126.14857 | 33163 ft | 472 kts | 11° |
| 2026-05-08 13:25 | 32.34163 | 126.17554 | 33161 ft | 471 kts | 11° |
| 2026-05-08 13:25 | 32.40424 | 126.20220 | 33160 ft | 473 kts | 11° |
| 2026-05-08 13:26 | 32.46645 | 126.22877 | 33157 ft | 473 kts | 11° |
| 2026-05-08 13:26 | 32.52842 | 126.25526 | 33155 ft | 474 kts | 11° |
| 2026-05-08 13:27 | 32.59114 | 126.28213 | 33155 ft | 475 kts | 11° |
| 2026-05-08 13:27 | 32.65296 | 126.30866 | 33162 ft | 473 kts | 11° |
| 2026-05-08 13:28 | 32.71638 | 126.33593 | 33167 ft | 474 kts | 11° |
| 2026-05-08 13:28 | 32.77866 | 126.36273 | 33155 ft | 473 kts | 11° |
| 2026-05-08 13:29 | 32.84054 | 126.38943 | 33160 ft | 473 kts | 11° |
| 2026-05-08 13:29 | 32.90222 | 126.41608 | 33149 ft | 473 kts | 10° |
| 2026-05-08 13:30 | 32.96347 | 126.44602 | 33154 ft | 480 kts | 17° |
| 2026-05-08 13:30 | 33.02245 | 126.48577 | 33145 ft | 492 kts | 25° |
| 2026-05-08 13:31 | 33.07778 | 126.53577 | 33145 ft | 501 kts | 33° |
| 2026-05-08 13:31 | 33.13031 | 126.59098 | 33145 ft | 503 kts | 34° |
| 2026-05-08 13:32 | 33.18269 | 126.64613 | 33145 ft | 500 kts | 34° |
| 2026-05-08 13:32 | 33.23541 | 126.70106 | 33083 ft | 501 kts | 34° |
| 2026-05-08 13:33 | 33.26235 | 126.72921 | 32804 ft | 494 kts | 33° |
| 2026-05-08 13:33 | 33.28905 | 126.75710 | 32524 ft | 493 kts | 34° |
| 2026-05-08 13:33 | 33.31511 | 126.78424 | 32263 ft | 493 kts | 33° |
| 2026-05-08 13:33 | 33.34157 | 126.81189 | 31984 ft | 493 kts | 33° |
| 2026-05-08 13:34 | 33.36741 | 126.83885 | 31713 ft | 493 kts | 34° |
| 2026-05-08 13:34 | 33.39317 | 126.86581 | 31451 ft | 490 kts | 33° |
| 2026-05-08 13:34 | 33.41885 | 126.89278 | 31195 ft | 488 kts | 33° |
| 2026-05-08 13:34 | 33.44431 | 126.91948 | 30935 ft | 487 kts | 33° |
| 2026-05-08 13:35 | 33.46979 | 126.94623 | 30669 ft | 487 kts | 33° |
| 2026-05-08 13:35 | 33.49532 | 126.97306 | 30409 ft | 485 kts | 33° |
| 2026-05-08 13:35 | 33.52049 | 126.99956 | 30135 ft | 483 kts | 33° |
| 2026-05-08 13:35 | 33.54561 | 127.02599 | 29881 ft | 482 kts | 33° |
| 2026-05-08 13:36 | 33.57055 | 127.05284 | 29624 ft | 483 kts | 35° |
| 2026-05-08 13:36 | 33.59432 | 127.08137 | 29355 ft | 486 kts | 39° |
| 2026-05-08 13:36 | 33.61697 | 127.11113 | 29114 ft | 485 kts | 41° |
| 2026-05-08 13:36 | 33.63924 | 127.14117 | 28868 ft | 483 kts | 41° |
| 2026-05-08 13:37 | 33.66154 | 127.17142 | 28613 ft | 480 kts | 40° |
| 2026-05-08 13:37 | 33.68366 | 127.20136 | 28367 ft | 478 kts | 41° |
| 2026-05-08 13:37 | 33.70590 | 127.23129 | 28121 ft | 475 kts | 41° |
| 2026-05-08 13:37 | 33.72796 | 127.26096 | 27860 ft | 472 kts | 41° |
| 2026-05-08 13:38 | 33.74993 | 127.29044 | 27620 ft | 472 kts | 40° |
| 2026-05-08 13:38 | 33.77309 | 127.32163 | 27368 ft | 470 kts | 40° |
| 2026-05-08 13:38 | 33.79469 | 127.35073 | 27110 ft | 467 kts | 40° |
| 2026-05-08 13:38 | 33.81650 | 127.38004 | 26872 ft | 466 kts | 40° |
| 2026-05-08 13:39 | 33.83796 | 127.40898 | 26635 ft | 463 kts | 40° |
| 2026-05-08 13:39 | 33.85944 | 127.43793 | 26378 ft | 460 kts | 40° |
| 2026-05-08 13:39 | 33.88089 | 127.46689 | 26117 ft | 458 kts | 40° |
| 2026-05-08 13:39 | 33.90192 | 127.49530 | 25884 ft | 457 kts | 40° |
| 2026-05-08 13:40 | 33.92311 | 127.52399 | 25651 ft | 453 kts | 40° |
| 2026-05-08 13:40 | 33.94410 | 127.55241 | 25394 ft | 450 kts | 40° |
| 2026-05-08 13:40 | 33.96483 | 127.58049 | 25178 ft | 449 kts | 40° |
| 2026-05-08 13:40 | 33.98561 | 127.60867 | 24908 ft | 445 kts | 40° |
| 2026-05-08 13:41 | 34.00597 | 127.63629 | 24681 ft | 443 kts | 40° |
| 2026-05-08 13:41 | 34.02656 | 127.66425 | 24403 ft | 440 kts | 41° |
| 2026-05-08 13:41 | 34.04671 | 127.69161 | 24152 ft | 439 kts | 41° |
| 2026-05-08 13:41 | 34.06730 | 127.71962 | 23948 ft | 437 kts | 40° |
| 2026-05-08 13:42 | 34.08730 | 127.74686 | 23701 ft | 435 kts | 41° |
| 2026-05-08 13:42 | 34.10744 | 127.77431 | 23464 ft | 433 kts | 41° |
| 2026-05-08 13:42 | 34.12727 | 127.80138 | 23214 ft | 430 kts | 40° |
| 2026-05-08 13:42 | 34.14724 | 127.82863 | 23047 ft | 428 kts | 40° |
| 2026-05-08 13:43 | 34.16680 | 127.85532 | 22800 ft | 426 kts | 41° |
| 2026-05-08 13:43 | 34.18639 | 127.88208 | 22549 ft | 423 kts | 41° |
| 2026-05-08 13:43 | 34.20591 | 127.90881 | 22311 ft | 420 kts | 41° |
| 2026-05-08 13:43 | 34.22529 | 127.93534 | 22097 ft | 419 kts | 41° |
| 2026-05-08 13:44 | 34.24445 | 127.96160 | 21892 ft | 417 kts | 40° |
| 2026-05-08 13:44 | 34.26379 | 127.98811 | 21637 ft | 415 kts | 41° |
| 2026-05-08 13:44 | 34.28271 | 128.01407 | 21434 ft | 411 kts | 40° |
| 2026-05-08 13:44 | 34.30143 | 128.03976 | 21198 ft | 409 kts | 41° |
| 2026-05-08 13:45 | 34.32020 | 128.06551 | 20948 ft | 408 kts | 41° |
| 2026-05-08 13:45 | 34.33890 | 128.09123 | 20722 ft | 405 kts | 40° |
| 2026-05-08 13:45 | 34.35767 | 128.11708 | 20487 ft | 402 kts | 40° |
| 2026-05-08 13:45 | 34.37617 | 128.14255 | 20262 ft | 401 kts | 41° |
| 2026-05-08 13:46 | 34.39458 | 128.16792 | 20025 ft | 399 kts | 41° |
| 2026-05-08 13:46 | 34.41441 | 128.19525 | 19749 ft | 397 kts | 41° |
| 2026-05-08 13:46 | 34.43244 | 128.22014 | 19522 ft | 395 kts | 41° |
| 2026-05-08 13:46 | 34.45106 | 128.24589 | 19274 ft | 392 kts | 41° |
| 2026-05-08 13:47 | 34.46922 | 128.27100 | 19047 ft | 389 kts | 40° |
| 2026-05-08 13:47 | 34.48736 | 128.29611 | 18786 ft | 385 kts | 40° |
| 2026-05-08 13:47 | 34.50542 | 128.32108 | 18550 ft | 384 kts | 40° |
| 2026-05-08 13:47 | 34.52309 | 128.34557 | 18323 ft | 381 kts | 40° |
| 2026-05-08 13:48 | 34.54120 | 128.37068 | 18058 ft | 378 kts | 40° |
| 2026-05-08 13:48 | 34.55913 | 128.39557 | 17812 ft | 376 kts | 40° |
| 2026-05-08 13:48 | 34.57621 | 128.41925 | 17579 ft | 373 kts | 40° |
| 2026-05-08 13:48 | 34.59320 | 128.44286 | 17360 ft | 371 kts | 40° |
| 2026-05-08 13:49 | 34.61009 | 128.46634 | 17135 ft | 368 kts | 40° |
| 2026-05-08 13:49 | 34.62823 | 128.48744 | 16866 ft | 352 kts | 24° |
| 2026-05-08 13:49 | 34.64988 | 128.49872 | 16626 ft | 329 kts | 3° |
| 2026-05-08 13:49 | 34.67199 | 128.50133 | 16364 ft | 319 kts | 354° |
| 2026-05-08 13:50 | 34.69430 | 128.50247 | 16046 ft | 317 kts | 354° |
| 2026-05-08 13:50 | 34.71636 | 128.50362 | 15707 ft | 315 kts | 355° |
| 2026-05-08 13:50 | 34.73817 | 128.50485 | 15348 ft | 313 kts | 355° |
| 2026-05-08 13:50 | 34.75956 | 128.50612 | 14996 ft | 310 kts | 355° |
| 2026-05-08 13:51 | 34.78129 | 128.50743 | 14642 ft | 308 kts | 356° |
| 2026-05-08 13:51 | 34.80283 | 128.50876 | 14294 ft | 306 kts | 356° |
| 2026-05-08 13:51 | 34.82387 | 128.51009 | 13943 ft | 304 kts | 357° |
| 2026-05-08 13:51 | 34.84508 | 128.51144 | 13584 ft | 301 kts | 357° |
| 2026-05-08 13:52 | 34.86602 | 128.51280 | 13219 ft | 299 kts | 357° |
| 2026-05-08 13:52 | 34.88666 | 128.51415 | 12862 ft | 297 kts | 357° |
| 2026-05-08 13:52 | 34.90758 | 128.51550 | 12477 ft | 295 kts | 358° |
| 2026-05-08 13:52 | 34.92818 | 128.51685 | 12113 ft | 292 kts | 359° |
| 2026-05-08 13:53 | 34.94810 | 128.52222 | 11376 ft | 306 kts | 19° |
| 2026-05-08 13:53 | 34.96667 | 128.53589 | 10457 ft | 310 kts | 27° |
| 2026-05-08 13:53 | 34.98415 | 128.55040 | 9865 ft | 299 kts | 27° |
| 2026-05-08 13:53 | 35.00122 | 128.56421 | 9196 ft | 290 kts | 27° |
| 2026-05-08 13:54 | 35.01795 | 128.57724 | 8613 ft | 280 kts | 26° |
| 2026-05-08 13:54 | 35.03442 | 128.58978 | 8068 ft | 270 kts | 26° |
| 2026-05-08 13:54 | 35.05038 | 128.60182 | 7527 ft | 262 kts | 27° |
| 2026-05-08 13:54 | 35.06601 | 128.61353 | 7113 ft | 258 kts | 27° |
| 2026-05-08 13:55 | 35.08136 | 128.62517 | 6763 ft | 258 kts | 31° |
| 2026-05-08 13:55 | 35.09321 | 128.64188 | 6413 ft | 265 kts | 63° |
| 2026-05-08 13:55 | 35.08964 | 128.68636 | 5798 ft | 279 kts | 121° |
| 2026-05-08 13:56 | 35.07796 | 128.70473 | 5509 ft | 271 kts | 126° |
| 2026-05-08 13:56 | 35.06599 | 128.72269 | 5269 ft | 269 kts | 126° |
| 2026-05-08 13:56 | 35.05460 | 128.74014 | 5221 ft | 252 kts | 125° |
| 2026-05-08 13:56 | 35.04412 | 128.75656 | 5187 ft | 243 kts | 122° |
| 2026-05-08 13:57 | 35.03745 | 128.77484 | 5001 ft | 231 kts | 88° |
| 2026-05-08 13:57 | 35.04141 | 128.79279 | 4824 ft | 212 kts | 45° |
| 2026-05-08 13:57 | 35.05299 | 128.80298 | 4733 ft | 208 kts | 24° |
| 2026-05-08 13:57 | 35.06574 | 128.81221 | 4583 ft | 211 kts | 31° |
| 2026-05-08 13:58 | 35.07777 | 128.82263 | 4365 ft | 211 kts | 33° |
| 2026-05-08 13:58 | 35.08967 | 128.83350 | 4044 ft | 210 kts | 33° |
| 2026-05-08 13:58 | 35.10109 | 128.84409 | 3964 ft | 205 kts | 34° |
| 2026-05-08 13:58 | 35.11250 | 128.85472 | 3485 ft | 207 kts | 33° |
| 2026-05-08 13:59 | 35.12410 | 128.86554 | 2977 ft | 208 kts | 33° |
| 2026-05-08 13:59 | 35.13493 | 128.87573 | 2675 ft | 187 kts | 33° |
| 2026-05-08 13:59 | 35.14476 | 128.88500 | 2327 ft | 173 kts | 32° |
| 2026-05-08 13:59 | 35.15395 | 128.89363 | 1976 ft | 161 kts | 31° |
| 2026-05-08 14:00 | 35.16248 | 128.90160 | 1687 ft | 148 kts | 32° |
| 2026-05-08 14:00 | 35.17106 | 128.90830 | 1392 ft | 143 kts | 16° |
| 2026-05-08 14:00 | 35.18073 | 128.91132 | 1203 ft | 144 kts | 8° |
| 2026-05-08 14:00 | 35.19068 | 128.91330 | 1184 ft | 145 kts | 3° |
| 2026-05-08 14:01 | 35.20074 | 128.91479 | 1188 ft | 148 kts | 13° |
| 2026-05-08 14:01 | 35.20777 | 128.92360 | 849 ft | 153 kts | 79° |
| 2026-05-08 14:01 | 35.20384 | 128.93474 | 649 ft | 150 kts | 150° |
| 2026-05-08 14:01 | 35.19404 | 128.93538 | 438 ft | 146 kts | 189° |
| 2026-05-08 14:02 | 35.18281 | 128.93631 | 614 ft | 174 kts | 171° |
| 2026-05-08 14:02 | 35.17083 | 128.94148 | 1166 ft | 197 kts | 150° |
| 2026-05-08 14:02 | 35.15796 | 128.94876 | 1863 ft | 214 kts | 171° |
| 2026-05-08 14:02 | 35.14317 | 128.94765 | 2469 ft | 216 kts | 207° |
| 2026-05-08 14:03 | 35.13133 | 128.93640 | 2911 ft | 224 kts | 239° |
| 2026-05-08 14:03 | 35.12261 | 128.91960 | 3014 ft | 240 kts | 243° |
| 2026-05-08 14:03 | 35.11377 | 128.90219 | 3011 ft | 243 kts | 242° |
| 2026-05-08 14:03 | 35.10473 | 128.88464 | 3010 ft | 244 kts | 242° |
| 2026-05-08 14:04 | 35.09564 | 128.86714 | 3007 ft | 245 kts | 242° |
| 2026-05-08 14:04 | 35.08653 | 128.84964 | 3008 ft | 244 kts | 242° |
| 2026-05-08 14:04 | 35.07745 | 128.83225 | 3009 ft | 245 kts | 243° |
| 2026-05-08 14:04 | 35.07111 | 128.81334 | 2982 ft | 236 kts | 271° |
| 2026-05-08 14:05 | 35.07415 | 128.79666 | 2987 ft | 223 kts | 307° |
| 2026-05-08 14:05 | 35.08585 | 128.78548 | 3001 ft | 218 kts | 346° |
| 2026-05-08 14:05 | 35.10068 | 128.78694 | 3006 ft | 220 kts | 26° |
| 2026-05-08 14:05 | 35.11113 | 128.80067 | 3003 ft | 232 kts | 65° |
| 2026-05-08 14:06 | 35.11217 | 128.82077 | 3019 ft | 243 kts | 98° |
| 2026-05-08 14:06 | 35.10875 | 128.84125 | 3031 ft | 247 kts | 94° |
| 2026-05-08 14:06 | 35.10951 | 128.86163 | 2995 ft | 237 kts | 66° |
| 2026-05-08 14:06 | 35.11834 | 128.87778 | 2994 ft | 225 kts | 34° |
| 2026-05-08 14:07 | 35.13211 | 128.88614 | 3031 ft | 222 kts | 17° |
| 2026-05-08 14:07 | 35.14639 | 128.89339 | 3016 ft | 224 kts | 22° |
| 2026-05-08 14:07 | 35.16027 | 128.90265 | 3012 ft | 225 kts | 27° |
| 2026-05-08 14:07 | 35.16614 | 128.90692 | 2702 ft | 169 kts | 26° |
| 2026-05-08 14:08 | 35.17463 | 128.90990 | 1687 ft | 186 kts | 1° |
| 2026-05-08 14:08 | 35.18660 | 128.90974 | 1937 ft | 166 kts | 352° |
| 2026-05-08 14:08 | 35.19750 | 128.90559 | 2119 ft | 167 kts | 337° |
| 2026-05-08 14:08 | 35.20785 | 128.90045 | 1894 ft | 154 kts | 340° |
| 2026-05-08 14:09 | 35.21820 | 128.89961 | 1472 ft | 153 kts | 16° |
| 2026-05-08 14:09 | 35.22408 | 128.90987 | 1001 ft | 162 kts | 84° |
| 2026-05-08 14:09 | 35.21828 | 128.92128 | 459 ft | 171 kts | 159° |
| 2026-05-08 14:09 | 35.20831 | 128.92569 | 658 ft | 138 kts | 138° |
| 2026-05-08 14:10 | 35.20165 | 128.93359 | 442 ft | 131 kts | 167° |
| 2026-05-08 14:10 | 35.19277 | 128.93527 | 178 ft | 129 kts | 170° |
| 2026-05-08 14:10 | 35.18362 | 128.93646 | 65 ft | 129 kts | 179° |
| 2026-05-08 14:10 | 35.17614 | 128.93735 | 21 ft | 71 kts | 179° |
| 2026-05-08 14:11 | 35.17329 | 128.93787 | 19 ft | 37 kts | 175° |
| 2026-05-08 14:11 | 35.17064 | 128.93916 | 20 ft | 48 kts | 145° |
| 2026-05-08 14:11 | 35.16978 | 128.94218 | 18 ft | 37 kts | 86° |
| 2026-05-08 14:11 | 35.16998 | 128.94459 | 18 ft | 23 kts | 86° |
| 2026-05-08 14:12 | 35.17022 | 128.94511 | 18 ft | 1 kts | 340° |
| 2026-05-08 14:12 | 35.17096 | 128.94495 | 18 ft | 18 kts | 352° |
| 2026-05-08 14:12 | 35.17150 | 128.94518 | 19 ft | 0 kts | 90° |
| 2026-05-08 14:12 | 35.17151 | 128.94522 | 19 ft | 0 kts | 59° |
| 2026-05-08 14:13 | 35.17163 | 128.94536 | 19 ft | 3 kts | 52° |
| 2026-05-08 14:13 | 35.17172 | 128.94566 | 19 ft | 4 kts | 79° |
| 2026-05-08 14:13 | 35.17173 | 128.94571 | 19 ft | 0 kts | 80° |
| 2026-05-08 14:13 | 35.17173 | 128.94574 | 19 ft | 0 kts | 82° |